createdAt,value
2023-05-20T00:03:44.771Z,8.80
2023-05-20T00:08:46.606Z,8.68
2023-05-20T00:13:48.252Z,9.00
2023-05-20T00:18:49.977Z,9.05
2023-05-20T00:23:51.870Z,9.27
2023-05-20T00:28:53.534Z,7.70
2023-05-20T00:33:55.477Z,8.38
2023-05-20T00:38:57.205Z,8.80
2023-05-20T00:43:58.922Z,8.98
2023-05-20T00:49:00.867Z,8.90
2023-05-20T00:54:03.187Z,8.40
2023-05-20T00:59:05.735Z,9.80
2023-05-20T01:04:07.509Z,8.32
2023-05-20T01:09:09.217Z,8.45
2023-05-20T01:14:13.186Z,7.97
2023-05-20T01:19:27.213Z,7.88
2023-05-20T01:24:30.938Z,8.57
2023-05-20T01:29:34.971Z,9.23
2023-05-20T01:34:37.930Z,8.70
2023-05-20T01:39:44.247Z,8.27
2023-05-20T01:44:46.087Z,8.38
2023-05-20T01:49:47.952Z,10.57
2023-05-20T01:54:51.377Z,8.70
2023-05-20T01:59:53.191Z,8.85
2023-05-20T02:04:55.025Z,9.15
2023-05-20T02:09:56.807Z,10.45
2023-05-20T02:14:58.558Z,9.00
2023-05-20T02:20:00.445Z,7.88
2023-05-20T02:25:02.763Z,7.88
2023-05-20T02:30:04.978Z,8.35
2023-05-20T02:35:06.901Z,7.55
2023-05-20T02:40:09.400Z,8.50
2023-05-20T02:45:13.910Z,7.88
2023-05-20T02:50:15.781Z,7.82
2023-05-20T02:55:17.530Z,8.57
2023-05-20T03:00:19.230Z,8.48
2023-05-20T03:05:21.536Z,7.53
2023-05-20T03:10:23.338Z,10.68
2023-05-20T03:15:25.028Z,9.40
2023-05-20T03:20:27.072Z,13.23
2023-05-20T03:25:29.673Z,8.50
2023-05-20T03:30:31.523Z,8.57
2023-05-20T03:35:33.787Z,8.15
2023-05-20T03:40:35.593Z,8.07
2023-05-20T03:45:38.515Z,8.38
2023-05-20T03:50:42.130Z,9.05
2023-05-20T03:55:44.200Z,8.00
2023-05-20T04:00:48.960Z,8.13
2023-05-20T04:05:50.867Z,8.00
2023-05-20T04:10:57.027Z,10.38
2023-05-20T04:15:58.883Z,8.48
2023-05-20T04:21:01.739Z,9.55
2023-05-20T04:26:03.815Z,8.60
2023-05-20T04:31:07.577Z,8.35
2023-05-20T04:36:15.344Z,8.75
2023-05-20T04:41:17.212Z,8.23
2023-05-20T04:46:20.560Z,9.32
2023-05-20T04:51:22.790Z,10.65
2023-05-20T04:56:26.700Z,8.77
2023-05-20T05:01:28.473Z,10.00
2023-05-20T05:06:30.236Z,8.20
2023-05-20T05:11:34.068Z,9.25
2023-05-20T05:16:36.008Z,9.10
2023-05-20T05:21:37.745Z,8.95
2023-05-20T05:26:39.527Z,10.30
2023-05-20T05:31:41.266Z,11.90
2023-05-20T05:36:42.994Z,10.02
2023-05-20T05:41:44.827Z,9.32
2023-05-20T05:46:48.080Z,9.82
2023-05-20T05:51:53.151Z,9.10
2023-05-20T05:56:56.785Z,9.40
2023-05-20T06:02:00.304Z,10.75
2023-05-20T06:07:02.646Z,9.95
2023-05-20T06:12:05.293Z,11.15
2023-05-20T06:17:07.608Z,9.63
2023-05-20T06:22:10.131Z,12.57
2023-05-20T06:27:12.304Z,10.25
2023-05-20T06:32:14.237Z,10.90
2023-05-20T06:37:16.468Z,11.70
2023-05-20T06:42:18.447Z,10.52
2023-05-20T06:47:23.775Z,11.98
2023-05-20T06:52:27.008Z,11.07
2023-05-20T06:57:29.217Z,10.68
2023-05-20T07:02:33.995Z,11.30
2023-05-20T07:07:36.546Z,11.40
2023-05-20T07:12:38.677Z,11.77
2023-05-20T07:17:40.903Z,10.57
2023-05-20T07:22:44.273Z,11.02
2023-05-20T07:27:55.885Z,11.65
2023-05-20T07:32:58.262Z,11.50
2023-05-20T07:38:00.234Z,12.48
2023-05-20T07:43:02.625Z,12.90
2023-05-20T07:48:05.774Z,11.80
2023-05-20T07:53:08.219Z,12.90
2023-05-20T07:58:10.682Z,11.48
2023-05-20T08:03:14.770Z,12.40
2023-05-20T08:08:37.060Z,11.18
2023-05-20T08:13:44.447Z,11.82
2023-05-20T08:18:46.954Z,12.00
2023-05-20T08:23:48.913Z,11.70
2023-05-20T08:28:51.284Z,12.60
2023-05-20T08:33:54.456Z,13.02
2023-05-20T08:38:57.184Z,12.73
2023-05-20T08:44:01.921Z,12.98
2023-05-20T08:49:04.327Z,13.27
2023-05-20T08:54:08.802Z,12.55
2023-05-20T08:59:10.782Z,12.63
2023-05-20T09:04:12.717Z,14.45
2023-05-20T09:09:15.001Z,13.48
2023-05-20T09:14:16.874Z,14.27
2023-05-20T09:19:24.332Z,14.30
2023-05-20T09:24:27.186Z,13.52
2023-05-20T09:29:34.079Z,15.77
2023-05-20T09:34:36.190Z,14.38
2023-05-20T09:39:52.817Z,14.75
2023-05-20T09:44:58.095Z,14.63
2023-05-20T09:50:00.838Z,15.20
2023-05-20T09:55:05.897Z,15.07
2023-05-20T10:00:13.388Z,15.02
2023-05-20T10:05:26.429Z,15.82
2023-05-20T10:10:34.346Z,15.90
2023-05-20T10:16:23.826Z,16.17
2023-05-20T10:21:26.179Z,16.10
2023-05-20T10:26:38.670Z,16.48
2023-05-20T10:31:45.937Z,17.15
2023-05-20T10:36:53.970Z,16.10
2023-05-20T10:42:11.626Z,18.00
2023-05-20T10:52:19.193Z,17.75
2023-05-20T10:57:21.594Z,17.23
2023-05-20T11:02:27.088Z,16.77
2023-05-20T11:07:30.827Z,17.80
2023-05-20T11:12:33.197Z,19.00
2023-05-20T11:17:35.248Z,18.38
2023-05-20T11:22:37.217Z,18.35
2023-05-20T11:27:40.021Z,18.23
2023-05-20T11:32:42.459Z,17.75
2023-05-20T11:37:44.625Z,17.45
2023-05-20T11:42:46.501Z,18.33
2023-05-20T11:47:59.541Z,17.35
2023-05-20T11:53:03.597Z,18.08
2023-05-20T11:58:05.368Z,18.05
2023-05-20T12:03:07.187Z,17.13
2023-05-20T12:08:09.309Z,17.35
2023-05-20T12:13:13.243Z,17.15
2023-05-20T12:18:15.006Z,18.13
2023-05-20T12:23:16.694Z,18.08
2023-05-20T12:28:18.458Z,17.83
2023-05-20T12:33:20.852Z,18.45
2023-05-20T12:38:22.625Z,17.65
2023-05-20T12:43:24.330Z,17.58
2023-05-20T12:48:26.052Z,18.33
2023-05-20T12:53:27.716Z,17.17
2023-05-20T12:58:29.412Z,17.30
2023-05-20T13:03:31.230Z,17.77
2023-05-20T13:08:32.978Z,17.45
2023-05-20T13:13:34.687Z,18.90
2023-05-20T13:18:36.360Z,18.65
2023-05-20T13:23:38.922Z,16.75
2023-05-20T13:28:40.568Z,17.80
2023-05-20T13:33:42.818Z,18.73
2023-05-20T13:38:44.479Z,17.73
2023-05-20T13:43:46.701Z,18.85
2023-05-20T13:48:48.443Z,17.27
2023-05-20T13:53:50.180Z,18.13
2023-05-20T13:58:51.925Z,17.95
2023-05-20T14:03:53.655Z,17.20
2023-05-20T14:08:56.995Z,18.10
2023-05-20T14:13:58.750Z,17.55
2023-05-20T14:19:00.534Z,18.35
2023-05-20T14:24:02.307Z,18.58
2023-05-20T14:29:03.975Z,17.67
2023-05-20T14:34:05.725Z,18.55
2023-05-20T14:39:07.371Z,18.80
2023-05-20T14:44:09.049Z,18.35
2023-05-20T14:49:10.830Z,18.63
2023-05-20T14:54:14.030Z,18.75
2023-05-20T14:59:15.691Z,18.75
2023-05-20T15:04:17.448Z,19.90
2023-05-20T15:09:19.155Z,18.17
2023-05-20T15:14:20.873Z,19.27
2023-05-20T15:19:22.866Z,18.23
2023-05-20T15:24:24.529Z,17.58
2023-05-20T15:29:26.416Z,18.17
2023-05-20T15:34:28.087Z,18.67
2023-05-20T15:39:29.761Z,17.77
2023-05-20T15:44:31.626Z,18.27
2023-05-20T15:49:33.352Z,18.90
2023-05-20T15:54:35.197Z,17.85
2023-05-20T15:59:36.958Z,18.63
2023-05-20T16:04:38.747Z,18.25
2023-05-20T16:09:40.508Z,17.83
2023-05-20T16:14:42.368Z,17.75
2023-05-20T16:19:44.057Z,17.27
2023-05-20T16:24:46.041Z,17.92
2023-05-20T16:29:47.790Z,17.88
2023-05-20T16:34:49.452Z,18.25
2023-05-20T16:39:51.109Z,17.27
2023-05-20T16:44:53.019Z,18.02
2023-05-20T16:49:56.076Z,17.30
2023-05-20T16:55:02.300Z,18.13
2023-05-20T17:00:11.615Z,18.08
2023-05-20T17:05:16.141Z,17.05
2023-05-20T17:10:18.702Z,17.77
2023-05-20T17:15:20.640Z,17.75
2023-05-20T17:20:22.407Z,17.98
2023-05-20T17:25:24.911Z,17.65
2023-05-20T17:30:27.345Z,17.67
2023-05-20T17:35:29.239Z,17.55
2023-05-20T17:40:30.941Z,18.73
2023-05-20T17:45:32.592Z,16.85
2023-05-20T17:50:34.497Z,17.30
2023-05-20T17:55:36.658Z,17.30
2023-05-20T18:00:42.280Z,17.30
2023-05-20T18:05:44.057Z,18.38
2023-05-20T18:10:45.753Z,17.95
2023-05-20T18:15:48.152Z,17.13
2023-05-20T18:20:49.827Z,17.58
2023-05-20T18:25:51.635Z,16.70
2023-05-20T18:30:53.477Z,17.63
2023-05-20T18:35:55.309Z,16.95
2023-05-20T18:40:56.980Z,16.83
2023-05-20T18:45:58.691Z,15.85
2023-05-20T18:51:00.425Z,15.75
2023-05-20T18:56:03.506Z,16.40
2023-05-20T19:01:05.255Z,14.63
2023-05-20T19:06:06.980Z,14.68
2023-05-20T19:11:08.633Z,15.55
2023-05-20T19:16:10.674Z,13.95
2023-05-20T19:21:12.367Z,14.85
2023-05-20T19:26:14.397Z,14.90
2023-05-20T19:31:21.020Z,14.55
2023-05-20T19:36:22.978Z,14.80
2023-05-20T19:41:24.617Z,14.07
2023-05-20T19:46:26.538Z,13.85
2023-05-20T19:51:28.358Z,12.35
2023-05-20T19:56:30.034Z,13.20
2023-05-20T20:01:32.066Z,12.85
2023-05-20T20:06:33.814Z,13.32
2023-05-20T20:11:35.987Z,13.00
2023-05-20T20:16:37.822Z,12.85
2023-05-20T20:21:40.430Z,12.43
2023-05-20T20:26:42.111Z,12.60
2023-05-20T20:31:43.766Z,11.65
2023-05-20T20:36:47.177Z,11.52
2023-05-20T20:41:52.630Z,11.65
2023-05-20T20:46:55.007Z,11.13
2023-05-20T20:51:56.833Z,10.63
2023-05-20T20:56:59.999Z,10.68
2023-05-20T21:02:01.916Z,11.00
2023-05-20T21:07:03.602Z,11.02
2023-05-20T21:12:06.685Z,9.63
2023-05-20T21:17:09.955Z,10.45
2023-05-20T21:22:11.718Z,9.68
2023-05-20T21:27:13.750Z,10.13
2023-05-20T21:32:15.503Z,10.40
2023-05-20T21:37:17.171Z,9.90
2023-05-20T21:42:18.813Z,9.57
2023-05-20T21:47:20.776Z,10.55
2023-05-20T21:52:22.517Z,9.88
2023-05-20T21:57:24.188Z,9.60
2023-05-20T22:02:26.001Z,40.55
2023-05-20T22:07:27.879Z,12.05
2023-05-20T22:12:29.596Z,12.70
2023-05-20T22:17:34.101Z,13.93
2023-05-20T22:22:36.365Z,12.52
2023-05-20T22:27:38.778Z,11.95
2023-05-20T22:32:40.801Z,10.48
2023-05-20T22:37:43.179Z,9.60
2023-05-20T22:42:44.966Z,10.45
2023-05-20T22:47:46.927Z,8.70
2023-05-20T22:52:48.645Z,9.88
2023-05-20T22:57:51.406Z,9.43
2023-05-20T23:02:53.153Z,10.13
2023-05-20T23:07:55.006Z,9.32
2023-05-20T23:12:56.632Z,11.52
2023-05-20T23:17:58.564Z,10.90
2023-05-20T23:23:05.627Z,13.65
2023-05-20T23:28:12.374Z,9.85
2023-05-20T23:33:14.985Z,10.93
2023-05-20T23:38:17.020Z,9.98
2023-05-20T23:43:18.754Z,9.52
2023-05-20T23:48:20.743Z,9.85
2023-05-20T23:53:22.836Z,8.10
2023-05-20T23:58:24.760Z,6.72
